sensor_id;sensor_type;location;lat;lon;timestamp;P1;durP1;ratioP1;P2;durP2;ratioP2
1577;SDS011;57623;53.608;10.004;2022-08-25T00:02:06;5.73;;;5.23;;
1577;SDS011;57623;53.608;10.004;2022-08-25T00:05:03;5.57;;;5.07;;
1577;SDS011;57623;53.608;10.004;2022-08-25T00:08:00;6.77;;;5.40;;
1577;SDS011;57623;53.608;10.004;2022-08-25T00:10:54;6.00;;;5.50;;
1577;SDS011;57623;53.608;10.004;2022-08-25T00:13:50;6.00;;;5.50;;
1577;SDS011;57623;53.608;10.004;2022-08-25T00:16:41;5.13;;;4.73;;
1577;SDS011;57623;53.608;10.004;2022-08-25T00:19:30;6.33;;;4.97;;
1577;SDS011;57623;53.608;10.004;2022-08-25T00:22:20;4.93;;;4.60;;
1577;SDS011;57623;53.608;10.004;2022-08-25T00:25:09;5.50;;;5.10;;
1577;SDS011;57623;53.608;10.004;2022-08-25T00:27:58;5.43;;;4.93;;
1577;SDS011;57623;53.608;10.004;2022-08-25T00:30:51;6.17;;;5.07;;
1577;SDS011;57623;53.608;10.004;2022-08-25T00:33:41;5.93;;;5.37;;
1577;SDS011;57623;53.608;10.004;2022-08-25T00:36:35;5.73;;;5.20;;
1577;SDS011;57623;53.608;10.004;2022-08-25T00:39:37;6.00;;;5.30;;
1577;SDS011;57623;53.608;10.004;2022-08-25T00:42:25;5.83;;;5.23;;
1577;SDS011;57623;53.608;10.004;2022-08-25T00:45:14;5.50;;;4.70;;
1577;SDS011;57623;53.608;10.004;2022-08-25T00:48:08;6.53;;;5.07;;
1577;SDS011;57623;53.608;10.004;2022-08-25T00:51:00;5.83;;;5.30;;
1577;SDS011;57623;53.608;10.004;2022-08-25T00:53:53;5.90;;;5.40;;
1577;SDS011;57623;53.608;10.004;2022-08-25T00:56:44;5.10;;;4.70;;
1577;SDS011;57623;53.608;10.004;2022-08-25T00:59:36;5.73;;;5.27;;
1577;SDS011;57623;53.608;10.004;2022-08-25T01:02:24;6.67;;;5.40;;
1577;SDS011;57623;53.608;10.004;2022-08-25T01:05:14;6.23;;;5.83;;
1577;SDS011;57623;53.608;10.004;2022-08-25T01:08:08;5.73;;;5.23;;
1577;SDS011;57623;53.608;10.004;2022-08-25T01:11:03;5.60;;;5.10;;
1577;SDS011;57623;53.608;10.004;2022-08-25T01:13:54;5.40;;;4.90;;
1577;SDS011;57623;53.608;10.004;2022-08-25T01:16:48;8.50;;;5.40;;
1577;SDS011;57623;53.608;10.004;2022-08-25T01:19:46;5.47;;;5.07;;
1577;SDS011;57623;53.608;10.004;2022-08-25T01:22:41;6.53;;;5.83;;
1577;SDS011;57623;53.608;10.004;2022-08-25T01:25:42;5.97;;;5.47;;
1577;SDS011;57623;53.608;10.004;2022-08-25T01:28:41;6.73;;;6.03;;
1577;SDS011;57623;53.608;10.004;2022-08-25T01:31:56;7.00;;;6.30;;
1577;SDS011;57623;53.608;10.004;2022-08-25T01:34:48;5.87;;;5.37;;
1577;SDS011;57623;53.608;10.004;2022-08-25T01:37:41;5.67;;;5.17;;
1577;SDS011;57623;53.608;10.004;2022-08-25T01:40:31;6.17;;;5.57;;
1577;SDS011;57623;53.608;10.004;2022-08-25T01:43:29;6.80;;;5.73;;
1577;SDS011;57623;53.608;10.004;2022-08-25T01:46:24;5.97;;;5.33;;
1577;SDS011;57623;53.608;10.004;2022-08-25T01:49:17;5.70;;;5.20;;
1577;SDS011;57623;53.608;10.004;2022-08-25T01:52:09;6.77;;;6.10;;
1577;SDS011;57623;53.608;10.004;2022-08-25T01:55:07;6.23;;;5.63;;
1577;SDS011;57623;53.608;10.004;2022-08-25T01:57:56;6.07;;;5.50;;
1577;SDS011;57623;53.608;10.004;2022-08-25T02:00:48;5.77;;;5.27;;
1577;SDS011;57623;53.608;10.004;2022-08-25T02:03:40;6.70;;;5.67;;
1577;SDS011;57623;53.608;10.004;2022-08-25T02:06:32;6.00;;;5.40;;
1577;SDS011;57623;53.608;10.004;2022-08-25T02:09:28;5.80;;;5.30;;
1577;SDS011;57623;53.608;10.004;2022-08-25T02:12:25;6.40;;;5.90;;
1577;SDS011;57623;53.608;10.004;2022-08-25T02:15:18;6.33;;;5.70;;
1577;SDS011;57623;53.608;10.004;2022-08-25T02:18:10;6.90;;;6.30;;
1577;SDS011;57623;53.608;10.004;2022-08-25T02:21:01;6.70;;;5.27;;
1577;SDS011;57623;53.608;10.004;2022-08-25T02:23:50;5.73;;;5.33;;
1577;SDS011;57623;53.608;10.004;2022-08-25T02:26:39;5.93;;;5.43;;
1577;SDS011;57623;53.608;10.004;2022-08-25T02:29:31;5.30;;;4.90;;
1577;SDS011;57623;53.608;10.004;2022-08-25T02:32:22;6.00;;;5.33;;
1577;SDS011;57623;53.608;10.004;2022-08-25T02:35:10;5.70;;;5.20;;
1577;SDS011;57623;53.608;10.004;2022-08-25T02:38:04;6.57;;;6.00;;
1577;SDS011;57623;53.608;10.004;2022-08-25T02:40:56;6.37;;;5.83;;
1577;SDS011;57623;53.608;10.004;2022-08-25T02:43:46;6.10;;;5.50;;
1577;SDS011;57623;53.608;10.004;2022-08-25T02:46:42;7.13;;;5.83;;
1577;SDS011;57623;53.608;10.004;2022-08-25T02:49:30;5.60;;;5.20;;
1577;SDS011;57623;53.608;10.004;2022-08-25T02:52:28;6.50;;;6.00;;
1577;SDS011;57623;53.608;10.004;2022-08-25T02:55:18;8.43;;;6.30;;
1577;SDS011;57623;53.608;10.004;2022-08-25T02:58:07;6.97;;;5.53;;
1577;SDS011;57623;53.608;10.004;2022-08-25T03:00:59;5.60;;;5.20;;
1577;SDS011;57623;53.608;10.004;2022-08-25T03:03:53;6.13;;;5.53;;
1577;SDS011;57623;53.608;10.004;2022-08-25T03:06:45;6.40;;;5.90;;
1577;SDS011;57623;53.608;10.004;2022-08-25T03:09:36;6.27;;;5.67;;
1577;SDS011;57623;53.608;10.004;2022-08-25T03:12:29;6.20;;;5.70;;
1577;SDS011;57623;53.608;10.004;2022-08-25T03:15:20;8.23;;;6.27;;
1577;SDS011;57623;53.608;10.004;2022-08-25T03:18:12;6.20;;;5.60;;
1577;SDS011;57623;53.608;10.004;2022-08-25T03:21:05;5.87;;;5.40;;
1577;SDS011;57623;53.608;10.004;2022-08-25T03:23:58;6.03;;;5.30;;
1577;SDS011;57623;53.608;10.004;2022-08-25T03:26:54;6.90;;;6.30;;
1577;SDS011;57623;53.608;10.004;2022-08-25T03:29:44;6.80;;;6.10;;
1577;SDS011;57623;53.608;10.004;2022-08-25T03:32:35;6.73;;;6.03;;
1577;SDS011;57623;53.608;10.004;2022-08-25T03:35:27;6.80;;;6.20;;
1577;SDS011;57623;53.608;10.004;2022-08-25T03:38:18;6.50;;;6.00;;
1577;SDS011;57623;53.608;10.004;2022-08-25T03:41:13;5.70;;;5.20;;
1577;SDS011;57623;53.608;10.004;2022-08-25T03:44:13;6.57;;;5.30;;
1577;SDS011;57623;53.608;10.004;2022-08-25T03:47:14;5.70;;;5.20;;
1577;SDS011;57623;53.608;10.004;2022-08-25T03:50:13;6.23;;;5.73;;
1577;SDS011;57623;53.608;10.004;2022-08-25T03:53:03;5.97;;;5.47;;
1577;SDS011;57623;53.608;10.004;2022-08-25T03:56:00;6.00;;;5.50;;
1577;SDS011;57623;53.608;10.004;2022-08-25T03:58:55;5.50;;;5.00;;
1577;SDS011;57623;53.608;10.004;2022-08-25T04:01:46;8.10;;;6.17;;
1577;SDS011;57623;53.608;10.004;2022-08-25T04:04:41;6.73;;;6.07;;
1577;SDS011;57623;53.608;10.004;2022-08-25T04:07:29;6.47;;;5.97;;
1577;SDS011;57623;53.608;10.004;2022-08-25T04:10:23;6.50;;;5.77;;
1577;SDS011;57623;53.608;10.004;2022-08-25T04:13:18;6.77;;;6.27;;
1577;SDS011;57623;53.608;10.004;2022-08-25T04:16:09;6.43;;;5.73;;
1577;SDS011;57623;53.608;10.004;2022-08-25T04:19:00;6.40;;;5.90;;
1577;SDS011;57623;53.608;10.004;2022-08-25T04:21:51;7.43;;;6.80;;
1577;SDS011;57623;53.608;10.004;2022-08-25T04:24:42;6.73;;;6.20;;
1577;SDS011;57623;53.608;10.004;2022-08-25T04:27:31;7.10;;;6.50;;
1577;SDS011;57623;53.608;10.004;2022-08-25T04:30:21;6.90;;;6.30;;
1577;SDS011;57623;53.608;10.004;2022-08-25T04:33:14;6.17;;;5.60;;
1577;SDS011;57623;53.608;10.004;2022-08-25T04:36:16;6.40;;;5.90;;
1577;SDS011;57623;53.608;10.004;2022-08-25T04:39:08;6.73;;;6.23;;
1577;SDS011;57623;53.608;10.004;2022-08-25T04:42:05;6.07;;;5.57;;
1577;SDS011;57623;53.608;10.004;2022-08-25T04:44:57;6.60;;;5.97;;
1577;SDS011;57623;53.608;10.004;2022-08-25T04:47:57;6.67;;;6.17;;
1577;SDS011;57623;53.608;10.004;2022-08-25T04:51:04;7.30;;;6.60;;
1577;SDS011;57623;53.608;10.004;2022-08-25T04:53:57;6.90;;;6.10;;
1577;SDS011;57623;53.608;10.004;2022-08-25T04:56:49;6.97;;;6.37;;
1577;SDS011;57623;53.608;10.004;2022-08-25T04:59:44;7.20;;;6.40;;
1577;SDS011;57623;53.608;10.004;2022-08-25T05:02:40;6.97;;;6.27;;
1577;SDS011;57623;53.608;10.004;2022-08-25T05:05:37;6.97;;;6.20;;
1577;SDS011;57623;53.608;10.004;2022-08-25T05:08:36;6.63;;;6.13;;
1577;SDS011;57623;53.608;10.004;2022-08-25T05:14:34;6.90;;;6.20;;
1577;SDS011;57623;53.608;10.004;2022-08-25T05:17:22;7.80;;;7.10;;
1577;SDS011;57623;53.608;10.004;2022-08-25T05:20:12;8.43;;;7.73;;
1577;SDS011;57623;53.608;10.004;2022-08-25T05:23:01;7.23;;;6.53;;
1577;SDS011;57623;53.608;10.004;2022-08-25T05:26:04;7.67;;;7.00;;
1577;SDS011;57623;53.608;10.004;2022-08-25T05:28:54;8.17;;;6.60;;
1577;SDS011;57623;53.608;10.004;2022-08-25T05:31:42;8.20;;;7.50;;
1577;SDS011;57623;53.608;10.004;2022-08-25T05:34:35;8.80;;;8.03;;
1577;SDS011;57623;53.608;10.004;2022-08-25T05:37:26;8.80;;;8.13;;
1577;SDS011;57623;53.608;10.004;2022-08-25T05:40:28;8.33;;;7.63;;
1577;SDS011;57623;53.608;10.004;2022-08-25T05:43:16;9.53;;;8.73;;
1577;SDS011;57623;53.608;10.004;2022-08-25T05:46:05;10.27;;;9.30;;
1577;SDS011;57623;53.608;10.004;2022-08-25T05:52:09;11.20;;;10.20;;
1577;SDS011;57623;53.608;10.004;2022-08-25T05:55:12;10.80;;;9.80;;
1577;SDS011;57623;53.608;10.004;2022-08-25T05:58:02;12.27;;;11.07;;
1577;SDS011;57623;53.608;10.004;2022-08-25T06:01:25;11.70;;;10.60;;
1577;SDS011;57623;53.608;10.004;2022-08-25T06:04:32;12.50;;;11.30;;
1577;SDS011;57623;53.608;10.004;2022-08-25T06:07:26;13.13;;;11.90;;
1577;SDS011;57623;53.608;10.004;2022-08-25T06:10:15;14.33;;;13.03;;
1577;SDS011;57623;53.608;10.004;2022-08-25T06:13:07;14.80;;;13.30;;
1577;SDS011;57623;53.608;10.004;2022-08-25T06:15:56;15.43;;;13.87;;
1577;SDS011;57623;53.608;10.004;2022-08-25T06:18:44;15.27;;;13.87;;
1577;SDS011;57623;53.608;10.004;2022-08-25T06:21:32;15.17;;;13.80;;
1577;SDS011;57623;53.608;10.004;2022-08-25T06:24:20;15.47;;;13.97;;
1577;SDS011;57623;53.608;10.004;2022-08-25T06:27:08;13.97;;;12.67;;
1577;SDS011;57623;53.608;10.004;2022-08-25T06:29:58;15.33;;;13.47;;
1577;SDS011;57623;53.608;10.004;2022-08-25T06:32:53;13.60;;;12.33;;
1577;SDS011;57623;53.608;10.004;2022-08-25T06:35:42;14.80;;;13.43;;
1577;SDS011;57623;53.608;10.004;2022-08-25T06:38:31;15.53;;;13.93;;
1577;SDS011;57623;53.608;10.004;2022-08-25T06:41:19;15.60;;;14.20;;
1577;SDS011;57623;53.608;10.004;2022-08-25T06:44:07;13.80;;;12.50;;
1577;SDS011;57623;53.608;10.004;2022-08-25T06:46:57;15.70;;;14.20;;
1577;SDS011;57623;53.608;10.004;2022-08-25T06:49:46;13.97;;;12.67;;
1577;SDS011;57623;53.608;10.004;2022-08-25T06:52:34;15.97;;;14.33;;
1577;SDS011;57623;53.608;10.004;2022-08-25T06:55:23;16.23;;;14.73;;
1577;SDS011;57623;53.608;10.004;2022-08-25T06:58:11;15.27;;;13.70;;
1577;SDS011;57623;53.608;10.004;2022-08-25T07:01:05;15.33;;;13.83;;
1577;SDS011;57623;53.608;10.004;2022-08-25T07:04:03;15.27;;;13.87;;
1577;SDS011;57623;53.608;10.004;2022-08-25T07:06:59;14.80;;;13.30;;
1577;SDS011;57623;53.608;10.004;2022-08-25T07:09:47;15.37;;;13.77;;
1577;SDS011;57623;53.608;10.004;2022-08-25T07:12:37;14.53;;;13.10;;
1577;SDS011;57623;53.608;10.004;2022-08-25T07:15:25;14.80;;;13.40;;
1577;SDS011;57623;53.608;10.004;2022-08-25T07:18:13;14.23;;;12.93;;
1577;SDS011;57623;53.608;10.004;2022-08-25T07:21:03;14.73;;;13.33;;
1577;SDS011;57623;53.608;10.004;2022-08-25T07:23:54;15.17;;;13.10;;
1577;SDS011;57623;53.608;10.004;2022-08-25T07:26:44;14.47;;;13.03;;
1577;SDS011;57623;53.608;10.004;2022-08-25T07:29:33;15.40;;;13.80;;
1577;SDS011;57623;53.608;10.004;2022-08-25T07:32:28;14.77;;;13.37;;
1577;SDS011;57623;53.608;10.004;2022-08-25T07:35:16;15.30;;;13.80;;
1577;SDS011;57623;53.608;10.004;2022-08-25T07:38:11;14.33;;;13.03;;
1577;SDS011;57623;53.608;10.004;2022-08-25T07:41:05;16.43;;;14.93;;
1577;SDS011;57623;53.608;10.004;2022-08-25T07:43:56;13.97;;;12.60;;
1577;SDS011;57623;53.608;10.004;2022-08-25T07:46:44;13.70;;;12.50;;
1577;SDS011;57623;53.608;10.004;2022-08-25T07:49:32;12.50;;;11.20;;
1577;SDS011;57623;53.608;10.004;2022-08-25T07:52:25;11.60;;;10.60;;
1577;SDS011;57623;53.608;10.004;2022-08-25T07:55:15;12.67;;;11.47;;
1577;SDS011;57623;53.608;10.004;2022-08-25T07:58:04;14.70;;;13.40;;
1577;SDS011;57623;53.608;10.004;2022-08-25T08:00:53;13.40;;;12.10;;
1577;SDS011;57623;53.608;10.004;2022-08-25T08:03:42;13.50;;;12.30;;
1577;SDS011;57623;53.608;10.004;2022-08-25T08:06:37;13.17;;;12.10;;
1577;SDS011;57623;53.608;10.004;2022-08-25T08:09:29;11.80;;;10.80;;
1577;SDS011;57623;53.608;10.004;2022-08-25T08:12:19;12.67;;;11.67;;
1577;SDS011;57623;53.608;10.004;2022-08-25T08:15:08;13.63;;;12.43;;
1577;SDS011;57623;53.608;10.004;2022-08-25T08:17:57;11.53;;;10.43;;
1577;SDS011;57623;53.608;10.004;2022-08-25T08:20:45;12.43;;;10.93;;
1577;SDS011;57623;53.608;10.004;2022-08-25T08:23:34;12.93;;;11.63;;
1577;SDS011;57623;53.608;10.004;2022-08-25T08:26:24;12.00;;;10.90;;
1577;SDS011;57623;53.608;10.004;2022-08-25T08:29:35;11.47;;;10.37;;
1577;SDS011;57623;53.608;10.004;2022-08-25T08:32:24;11.83;;;10.60;;
1577;SDS011;57623;53.608;10.004;2022-08-25T08:35:21;12.00;;;11.00;;
1577;SDS011;57623;53.608;10.004;2022-08-25T08:38:10;12.00;;;10.90;;
1577;SDS011;57623;53.608;10.004;2022-08-25T08:41:11;11.90;;;11.00;;
1577;SDS011;57623;53.608;10.004;2022-08-25T08:44:44;14.13;;;12.93;;
1577;SDS011;57623;53.608;10.004;2022-08-25T08:47:42;12.60;;;11.50;;
1577;SDS011;57623;53.608;10.004;2022-08-25T08:50:39;12.70;;;11.50;;
1577;SDS011;57623;53.608;10.004;2022-08-25T08:53:36;13.30;;;12.17;;
1577;SDS011;57623;53.608;10.004;2022-08-25T08:56:33;12.37;;;11.30;;
1577;SDS011;57623;53.608;10.004;2022-08-25T08:59:37;13.00;;;11.90;;
1577;SDS011;57623;53.608;10.004;2022-08-25T09:02:37;13.97;;;12.70;;
1577;SDS011;57623;53.608;10.004;2022-08-25T09:05:40;12.07;;;11.10;;
1577;SDS011;57623;53.608;10.004;2022-08-25T09:08:32;12.03;;;11.03;;
1577;SDS011;57623;53.608;10.004;2022-08-25T09:11:22;12.40;;;11.30;;
1577;SDS011;57623;53.608;10.004;2022-08-25T09:14:21;14.47;;;13.20;;
1577;SDS011;57623;53.608;10.004;2022-08-25T09:17:26;12.63;;;11.53;;
1577;SDS011;57623;53.608;10.004;2022-08-25T09:20:53;12.30;;;11.07;;
1577;SDS011;57623;53.608;10.004;2022-08-25T09:23:57;13.00;;;11.80;;
1577;SDS011;57623;53.608;10.004;2022-08-25T09:27:02;13.17;;;12.07;;
1577;SDS011;57623;53.608;10.004;2022-08-25T09:30:03;12.83;;;11.60;;
1577;SDS011;57623;53.608;10.004;2022-08-25T09:32:56;13.10;;;11.90;;
1577;SDS011;57623;53.608;10.004;2022-08-25T09:35:51;15.50;;;14.20;;
1577;SDS011;57623;53.608;10.004;2022-08-25T09:38:44;15.80;;;14.53;;
1577;SDS011;57623;53.608;10.004;2022-08-25T09:41:41;15.03;;;13.80;;
1577;SDS011;57623;53.608;10.004;2022-08-25T09:44:32;17.40;;;15.93;;
1577;SDS011;57623;53.608;10.004;2022-08-25T09:47:29;15.50;;;14.20;;
1577;SDS011;57623;53.608;10.004;2022-08-25T09:50:19;15.97;;;14.67;;
1577;SDS011;57623;53.608;10.004;2022-08-25T09:53:11;15.67;;;14.37;;
1577;SDS011;57623;53.608;10.004;2022-08-25T09:56:07;16.00;;;14.50;;
1577;SDS011;57623;53.608;10.004;2022-08-25T09:59:17;15.60;;;14.40;;
1577;SDS011;57623;53.608;10.004;2022-08-25T10:02:21;38.30;;;18.00;;
1577;SDS011;57623;53.608;10.004;2022-08-25T10:05:16;15.67;;;14.03;;
1577;SDS011;57623;53.608;10.004;2022-08-25T10:08:13;14.63;;;13.53;;
1577;SDS011;57623;53.608;10.004;2022-08-25T10:11:12;13.87;;;12.83;;
1577;SDS011;57623;53.608;10.004;2022-08-25T10:14:17;13.13;;;12.10;;
1577;SDS011;57623;53.608;10.004;2022-08-25T10:17:16;11.80;;;10.90;;
1577;SDS011;57623;53.608;10.004;2022-08-25T10:20:16;11.63;;;10.73;;
1577;SDS011;57623;53.608;10.004;2022-08-25T10:23:10;11.00;;;10.00;;
1577;SDS011;57623;53.608;10.004;2022-08-25T10:26:02;10.00;;;9.10;;
1577;SDS011;57623;53.608;10.004;2022-08-25T10:29:04;9.20;;;8.50;;
1577;SDS011;57623;53.608;10.004;2022-08-25T10:32:02;8.93;;;8.23;;
1577;SDS011;57623;53.608;10.004;2022-08-25T10:34:58;9.00;;;7.67;;
1577;SDS011;57623;53.608;10.004;2022-08-25T10:37:53;8.00;;;7.30;;
1577;SDS011;57623;53.608;10.004;2022-08-25T10:40:52;7.73;;;6.40;;
1577;SDS011;57623;53.608;10.004;2022-08-25T10:43:48;9.93;;;6.60;;
1577;SDS011;57623;53.608;10.004;2022-08-25T10:46:47;11.03;;;6.60;;
1577;SDS011;57623;53.608;10.004;2022-08-25T10:49:43;6.83;;;6.20;;
1577;SDS011;57623;53.608;10.004;2022-08-25T10:52:36;6.00;;;5.50;;
1577;SDS011;57623;53.608;10.004;2022-08-25T10:55:32;5.90;;;5.40;;
1577;SDS011;57623;53.608;10.004;2022-08-25T10:58:34;5.87;;;5.37;;
1577;SDS011;57623;53.608;10.004;2022-08-25T11:01:39;6.10;;;5.60;;
1577;SDS011;57623;53.608;10.004;2022-08-25T11:04:40;5.90;;;5.30;;
1577;SDS011;57623;53.608;10.004;2022-08-25T11:07:33;5.90;;;5.40;;
1577;SDS011;57623;53.608;10.004;2022-08-25T11:10:25;6.63;;;6.03;;
1577;SDS011;57623;53.608;10.004;2022-08-25T11:13:23;5.90;;;5.33;;
1577;SDS011;57623;53.608;10.004;2022-08-25T11:16:18;8.53;;;5.90;;
1577;SDS011;57623;53.608;10.004;2022-08-25T11:19:15;7.07;;;6.20;;
1577;SDS011;57623;53.608;10.004;2022-08-25T11:22:09;5.77;;;5.27;;
1577;SDS011;57623;53.608;10.004;2022-08-25T11:25:10;5.50;;;5.00;;
1577;SDS011;57623;53.608;10.004;2022-08-25T11:28:08;5.77;;;5.27;;
1577;SDS011;57623;53.608;10.004;2022-08-25T11:31:01;5.43;;;5.00;;
1577;SDS011;57623;53.608;10.004;2022-08-25T11:33:53;5.20;;;4.70;;
1577;SDS011;57623;53.608;10.004;2022-08-25T11:36:48;6.43;;;5.83;;
1577;SDS011;57623;53.608;10.004;2022-08-25T11:39:49;5.90;;;5.40;;
1577;SDS011;57623;53.608;10.004;2022-08-25T11:43:01;5.53;;;4.83;;
1577;SDS011;57623;53.608;10.004;2022-08-25T11:46:04;6.50;;;5.00;;
1577;SDS011;57623;53.608;10.004;2022-08-25T11:49:26;5.40;;;4.90;;
1577;SDS011;57623;53.608;10.004;2022-08-25T11:55:45;5.10;;;4.70;;
1577;SDS011;57623;53.608;10.004;2022-08-25T11:58:38;5.30;;;4.87;;
1577;SDS011;57623;53.608;10.004;2022-08-25T12:04:49;5.20;;;4.70;;
1577;SDS011;57623;53.608;10.004;2022-08-25T12:07:57;5.33;;;4.80;;
1577;SDS011;57623;53.608;10.004;2022-08-25T12:11:05;5.37;;;4.50;;
1577;SDS011;57623;53.608;10.004;2022-08-25T12:14:07;4.80;;;4.30;;
1577;SDS011;57623;53.608;10.004;2022-08-25T12:17:06;4.40;;;4.10;;
1577;SDS011;57623;53.608;10.004;2022-08-25T12:20:12;5.13;;;4.50;;
1577;SDS011;57623;53.608;10.004;2022-08-25T12:23:01;4.40;;;4.10;;
1577;SDS011;57623;53.608;10.004;2022-08-25T12:25:51;4.97;;;4.57;;
1577;SDS011;57623;53.608;10.004;2022-08-25T12:28:45;4.70;;;4.20;;
1577;SDS011;57623;53.608;10.004;2022-08-25T12:35:15;4.57;;;4.27;;
1577;SDS011;57623;53.608;10.004;2022-08-25T12:38:16;5.10;;;4.60;;
1577;SDS011;57623;53.608;10.004;2022-08-25T12:41:14;5.20;;;4.70;;
1577;SDS011;57623;53.608;10.004;2022-08-25T12:44:18;5.67;;;5.03;;
1577;SDS011;57623;53.608;10.004;2022-08-25T12:47:26;6.27;;;4.83;;
1577;SDS011;57623;53.608;10.004;2022-08-25T12:50:27;4.60;;;4.20;;
1577;SDS011;57623;53.608;10.004;2022-08-25T12:53:27;4.53;;;4.23;;
1577;SDS011;57623;53.608;10.004;2022-08-25T12:56:25;4.80;;;4.33;;
1577;SDS011;57623;53.608;10.004;2022-08-25T12:59:21;4.33;;;3.83;;
1577;SDS011;57623;53.608;10.004;2022-08-25T13:06:01;4.47;;;4.10;;
1577;SDS011;57623;53.608;10.004;2022-08-25T13:09:12;4.37;;;4.00;;
1577;SDS011;57623;53.608;10.004;2022-08-25T13:12:18;4.77;;;4.37;;
1577;SDS011;57623;53.608;10.004;2022-08-25T13:15:11;4.47;;;4.17;;
1577;SDS011;57623;53.608;10.004;2022-08-25T13:18:18;4.43;;;4.07;;
1577;SDS011;57623;53.608;10.004;2022-08-25T13:21:12;4.30;;;3.90;;
1577;SDS011;57623;53.608;10.004;2022-08-25T13:24:04;4.40;;;4.00;;
1577;SDS011;57623;53.608;10.004;2022-08-25T13:26:56;4.50;;;4.10;;
1577;SDS011;57623;53.608;10.004;2022-08-25T13:29:50;4.30;;;3.90;;
1577;SDS011;57623;53.608;10.004;2022-08-25T13:32:42;4.70;;;4.30;;
1577;SDS011;57623;53.608;10.004;2022-08-25T13:35:30;4.80;;;4.40;;
1577;SDS011;57623;53.608;10.004;2022-08-25T13:38:20;4.87;;;4.07;;
1577;SDS011;57623;53.608;10.004;2022-08-25T13:41:08;4.30;;;4.00;;
1577;SDS011;57623;53.608;10.004;2022-08-25T13:43:56;4.30;;;3.90;;
1577;SDS011;57623;53.608;10.004;2022-08-25T13:49:52;4.00;;;3.70;;
1577;SDS011;57623;53.608;10.004;2022-08-25T13:52:46;4.23;;;3.93;;
1577;SDS011;57623;53.608;10.004;2022-08-25T13:55:38;4.63;;;3.60;;
1577;SDS011;57623;53.608;10.004;2022-08-25T13:58:37;4.30;;;3.90;;
1577;SDS011;57623;53.608;10.004;2022-08-25T14:01:32;4.43;;;4.03;;
1577;SDS011;57623;53.608;10.004;2022-08-25T14:04:44;4.40;;;4.10;;
1577;SDS011;57623;53.608;10.004;2022-08-25T14:07:41;4.47;;;4.17;;
1577;SDS011;57623;53.608;10.004;2022-08-25T14:11:07;5.07;;;4.47;;
1577;SDS011;57623;53.608;10.004;2022-08-25T14:14:01;4.73;;;4.37;;
1577;SDS011;57623;53.608;10.004;2022-08-25T14:16:51;4.87;;;4.57;;
1577;SDS011;57623;53.608;10.004;2022-08-25T14:19:45;4.33;;;4.03;;
1577;SDS011;57623;53.608;10.004;2022-08-25T14:22:34;5.37;;;4.43;;
1577;SDS011;57623;53.608;10.004;2022-08-25T14:25:31;5.53;;;3.90;;
1577;SDS011;57623;53.608;10.004;2022-08-25T14:28:28;4.50;;;4.20;;
1577;SDS011;57623;53.608;10.004;2022-08-25T14:31:22;4.83;;;4.03;;
1577;SDS011;57623;53.608;10.004;2022-08-25T14:34:15;4.50;;;4.10;;
1577;SDS011;57623;53.608;10.004;2022-08-25T14:37:07;4.20;;;3.90;;
1577;SDS011;57623;53.608;10.004;2022-08-25T14:40:01;4.60;;;4.30;;
1577;SDS011;57623;53.608;10.004;2022-08-25T14:42:49;4.83;;;4.33;;
1577;SDS011;57623;53.608;10.004;2022-08-25T14:45:41;4.83;;;4.43;;
1577;SDS011;57623;53.608;10.004;2022-08-25T14:48:36;4.50;;;4.20;;
1577;SDS011;57623;53.608;10.004;2022-08-25T14:51:28;5.03;;;4.63;;
1577;SDS011;57623;53.608;10.004;2022-08-25T14:54:22;5.20;;;4.00;;
1577;SDS011;57623;53.608;10.004;2022-08-25T14:57:12;4.70;;;4.40;;
1577;SDS011;57623;53.608;10.004;2022-08-25T15:00:02;5.00;;;4.60;;
1577;SDS011;57623;53.608;10.004;2022-08-25T15:02:55;5.50;;;5.10;;
1577;SDS011;57623;53.608;10.004;2022-08-25T15:05:44;5.20;;;4.67;;
1577;SDS011;57623;53.608;10.004;2022-08-25T15:08:33;6.50;;;4.30;;
1577;SDS011;57623;53.608;10.004;2022-08-25T15:11:40;4.80;;;4.40;;
1577;SDS011;57623;53.608;10.004;2022-08-25T15:14:29;5.20;;;4.73;;
1577;SDS011;57623;53.608;10.004;2022-08-25T15:17:19;4.80;;;4.50;;
1577;SDS011;57623;53.608;10.004;2022-08-25T15:20:10;5.50;;;5.00;;
1577;SDS011;57623;53.608;10.004;2022-08-25T15:23:00;5.70;;;5.20;;
1577;SDS011;57623;53.608;10.004;2022-08-25T15:25:49;6.03;;;4.87;;
1577;SDS011;57623;53.608;10.004;2022-08-25T15:28:39;5.03;;;4.73;;
1577;SDS011;57623;53.608;10.004;2022-08-25T15:31:30;4.90;;;4.50;;
1577;SDS011;57623;53.608;10.004;2022-08-25T15:34:18;5.20;;;4.73;;
1577;SDS011;57623;53.608;10.004;2022-08-25T15:37:09;5.40;;;5.00;;
1577;SDS011;57623;53.608;10.004;2022-08-25T15:39:58;4.87;;;4.43;;
1577;SDS011;57623;53.608;10.004;2022-08-25T15:42:52;5.60;;;5.07;;
1577;SDS011;57623;53.608;10.004;2022-08-25T15:45:41;5.00;;;4.60;;
1577;SDS011;57623;53.608;10.004;2022-08-25T15:48:32;5.10;;;4.50;;
1577;SDS011;57623;53.608;10.004;2022-08-25T15:51:21;5.20;;;4.40;;
1577;SDS011;57623;53.608;10.004;2022-08-25T15:54:11;7.07;;;4.77;;
1577;SDS011;57623;53.608;10.004;2022-08-25T15:57:00;4.90;;;4.50;;
1577;SDS011;57623;53.608;10.004;2022-08-25T15:59:54;5.57;;;5.00;;
1577;SDS011;57623;53.608;10.004;2022-08-25T16:02:43;4.90;;;4.60;;
1577;SDS011;57623;53.608;10.004;2022-08-25T16:05:33;5.63;;;5.17;;
1577;SDS011;57623;53.608;10.004;2022-08-25T16:08:22;8.70;;;5.23;;
1577;SDS011;57623;53.608;10.004;2022-08-25T16:11:16;6.70;;;4.67;;
1577;SDS011;57623;53.608;10.004;2022-08-25T16:14:06;5.67;;;5.10;;
1577;SDS011;57623;53.608;10.004;2022-08-25T16:16:59;4.83;;;4.43;;
1577;SDS011;57623;53.608;10.004;2022-08-25T16:19:47;6.03;;;5.10;;
1577;SDS011;57623;53.608;10.004;2022-08-25T16:22:36;6.33;;;4.90;;
1577;SDS011;57623;53.608;10.004;2022-08-25T16:25:24;6.87;;;5.10;;
1577;SDS011;57623;53.608;10.004;2022-08-25T16:28:15;5.00;;;4.70;;
1577;SDS011;57623;53.608;10.004;2022-08-25T16:31:04;5.90;;;5.10;;
1577;SDS011;57623;53.608;10.004;2022-08-25T16:33:56;5.97;;;4.80;;
1577;SDS011;57623;53.608;10.004;2022-08-25T16:36:46;5.70;;;5.20;;
1577;SDS011;57623;53.608;10.004;2022-08-25T16:39:37;5.33;;;4.93;;
1577;SDS011;57623;53.608;10.004;2022-08-25T16:42:29;5.67;;;5.10;;
1577;SDS011;57623;53.608;10.004;2022-08-25T16:45:19;5.90;;;5.03;;
1577;SDS011;57623;53.608;10.004;2022-08-25T16:48:08;8.50;;;4.90;;
1577;SDS011;57623;53.608;10.004;2022-08-25T16:50:57;5.00;;;4.50;;
1577;SDS011;57623;53.608;10.004;2022-08-25T16:53:45;5.77;;;5.27;;
1577;SDS011;57623;53.608;10.004;2022-08-25T16:57:07;5.17;;;4.40;;
1577;SDS011;57623;53.608;10.004;2022-08-25T16:59:56;6.63;;;5.53;;
1577;SDS011;57623;53.608;10.004;2022-08-25T17:02:46;6.17;;;5.47;;
1577;SDS011;57623;53.608;10.004;2022-08-25T17:05:38;5.50;;;4.90;;
1577;SDS011;57623;53.608;10.004;2022-08-25T17:08:27;6.30;;;5.70;;
1577;SDS011;57623;53.608;10.004;2022-08-25T17:11:18;5.00;;;4.70;;
1577;SDS011;57623;53.608;10.004;2022-08-25T17:14:07;5.40;;;4.90;;
1577;SDS011;57623;53.608;10.004;2022-08-25T17:16:56;5.40;;;4.90;;
1577;SDS011;57623;53.608;10.004;2022-08-25T17:19:47;5.47;;;4.97;;
1577;SDS011;57623;53.608;10.004;2022-08-25T17:22:40;6.00;;;5.47;;
1577;SDS011;57623;53.608;10.004;2022-08-25T17:25:32;6.10;;;5.60;;
1577;SDS011;57623;53.608;10.004;2022-08-25T17:28:21;5.93;;;5.40;;
1577;SDS011;57623;53.608;10.004;2022-08-25T17:31:11;6.77;;;6.07;;
1577;SDS011;57623;53.608;10.004;2022-08-25T17:34:00;5.33;;;4.93;;
1577;SDS011;57623;53.608;10.004;2022-08-25T17:36:50;5.93;;;5.43;;
1577;SDS011;57623;53.608;10.004;2022-08-25T17:39:42;7.37;;;5.20;;
1577;SDS011;57623;53.608;10.004;2022-08-25T17:42:31;6.00;;;5.50;;
1577;SDS011;57623;53.608;10.004;2022-08-25T17:45:20;6.70;;;6.00;;